createdAt,value
2022-08-17T00:01:31.454Z,78.92
2022-08-17T00:04:19.165Z,80.13
2022-08-17T00:07:01.756Z,79.42
2022-08-17T00:09:28.097Z,78.63
2022-08-17T00:12:35.527Z,78.37
2022-08-17T00:14:40.839Z,78.89
2022-08-17T00:17:07.856Z,79.12
2022-08-17T00:19:34.227Z,77.92
2022-08-17T00:22:31.864Z,77.98
2022-08-17T00:24:50.105Z,78.33
2022-08-17T00:27:17.123Z,77.92
2022-08-17T00:29:45.350Z,78.56
2022-08-17T00:33:13.795Z,78.79
2022-08-17T00:34:59.395Z,79.93
2022-08-17T00:37:25.822Z,79.76
2022-08-17T00:39:52.297Z,81.14
2022-08-17T00:42:19.941Z,80.79
2022-08-17T00:44:46.372Z,79.57
2022-08-17T00:47:13.352Z,78.26
2022-08-17T00:49:40.021Z,77.55
2022-08-17T00:52:16.571Z,77.60
2022-08-17T00:54:46.787Z,76.89
2022-08-17T00:57:19.944Z,77.18
2022-08-17T01:00:01.936Z,76.68
2022-08-17T01:02:41.689Z,77.72
2022-08-17T01:05:18.847Z,78.35
2022-08-17T01:07:47.701Z,78.44
2022-08-17T01:10:58.953Z,77.38
2022-08-17T01:13:02.711Z,77.95
2022-08-17T01:15:31.915Z,77.03
2022-08-17T01:17:58.296Z,77.66
2022-08-17T01:20:24.982Z,76.60
2022-08-17T01:22:51.863Z,76.33
2022-08-17T01:25:19.952Z,77.37
2022-08-17T01:27:47.655Z,77.07
2022-08-17T01:30:58.911Z,76.29
2022-08-17T01:33:02.040Z,76.89
2022-08-17T01:35:28.439Z,76.14
2022-08-17T01:37:54.830Z,76.44
2022-08-17T01:40:51.121Z,77.31
2022-08-17T01:43:30.115Z,75.52
2022-08-17T01:46:03.247Z,76.31
2022-08-17T01:48:35.858Z,76.92
2022-08-17T01:51:03.401Z,75.81
2022-08-17T01:53:36.603Z,74.67
2022-08-17T01:56:09.014Z,74.50
2022-08-17T01:58:36.993Z,75.40
2022-08-17T02:01:05.513Z,75.42
2022-08-17T02:03:34.413Z,74.75
2022-08-17T02:06:01.526Z,74.30
2022-08-17T02:08:38.804Z,74.81
2022-08-17T02:11:11.490Z,74.32
2022-08-17T02:13:38.746Z,73.67
2022-08-17T02:16:05.693Z,73.09
2022-08-17T02:18:32.207Z,74.17
2022-08-17T02:20:58.649Z,75.14
2022-08-17T02:23:28.343Z,74.71
2022-08-17T02:25:57.545Z,74.97
2022-08-17T02:28:23.924Z,74.43
2022-08-17T02:31:01.794Z,75.04
2022-08-17T02:33:41.941Z,74.95
2022-08-17T02:36:11.758Z,74.93
2022-08-17T02:38:39.360Z,74.34
2022-08-17T02:41:06.363Z,74.48
2022-08-17T02:43:33.042Z,74.68
2022-08-17T02:45:59.449Z,74.93
2022-08-17T02:48:30.792Z,75.31
2022-08-17T02:50:58.933Z,74.85
2022-08-17T02:53:25.589Z,77.21
2022-08-17T02:55:52.889Z,77.20
2022-08-17T02:58:34.580Z,76.12
2022-08-17T03:01:03.177Z,76.41
2022-08-17T03:03:29.621Z,76.73
2022-08-17T03:05:56.205Z,77.27
2022-08-17T03:08:23.208Z,77.43
2022-08-17T03:10:50.299Z,77.21
2022-08-17T03:13:16.889Z,79.29
2022-08-17T03:15:45.252Z,78.35
2022-08-17T03:18:19.204Z,78.55
2022-08-17T03:20:54.826Z,78.39
2022-08-17T03:23:23.655Z,79.04
2022-08-17T03:25:53.411Z,78.40
2022-08-17T03:28:21.092Z,78.51
2022-08-17T03:30:47.629Z,78.47
2022-08-17T03:33:14.544Z,78.86
2022-08-17T03:35:41.635Z,78.58
2022-08-17T03:38:10.403Z,78.28
2022-08-17T03:40:58.527Z,77.12
2022-08-17T03:43:24.565Z,77.46
2022-08-17T03:46:10.738Z,76.47
2022-08-17T03:49:12.420Z,76.43
2022-08-17T03:51:57.323Z,76.98
2022-08-17T03:54:42.090Z,76.57
2022-08-17T03:57:11.150Z,77.52
2022-08-17T03:59:38.332Z,77.73
2022-08-17T04:02:12.888Z,78.92
2022-08-17T04:04:39.800Z,78.63
2022-08-17T04:07:07.405Z,77.89
2022-08-17T04:09:34.456Z,77.46
2022-08-17T04:12:02.381Z,78.23
2022-08-17T04:14:36.098Z,78.10
2022-08-17T04:17:12.577Z,77.45
2022-08-17T04:19:39.049Z,76.34
2022-08-17T04:22:05.677Z,76.87
2022-08-17T04:24:33.328Z,76.35
2022-08-17T04:27:01.548Z,76.46
2022-08-17T04:29:27.936Z,76.37
2022-08-17T04:32:14.297Z,76.91
2022-08-17T04:34:40.679Z,77.39
2022-08-17T04:37:08.592Z,76.91
2022-08-17T04:39:35.044Z,76.57
2022-08-17T04:42:07.485Z,76.70
2022-08-17T04:44:37.637Z,76.70
2022-08-17T04:47:05.015Z,76.86
2022-08-17T04:49:32.474Z,76.16
2022-08-17T04:52:04.426Z,76.17
2022-08-17T04:54:31.440Z,77.83
2022-08-17T04:56:57.834Z,78.23
2022-08-17T04:59:24.352Z,77.54
2022-08-17T05:01:52.160Z,77.85
2022-08-17T05:04:34.023Z,78.42
2022-08-17T05:07:02.340Z,78.73
2022-08-17T05:09:28.995Z,77.28
2022-08-17T05:11:56.298Z,78.91
2022-08-17T05:14:33.627Z,81.79
2022-08-17T05:17:01.142Z,80.10
2022-08-17T05:19:28.212Z,80.38
2022-08-17T05:21:54.640Z,77.05
2022-08-17T05:24:39.143Z,76.71
2022-08-17T05:27:07.413Z,76.63
2022-08-17T05:29:35.650Z,76.03
2022-08-17T05:32:38.146Z,75.71
2022-08-17T05:35:00.337Z,75.47
2022-08-17T05:37:26.921Z,77.60
2022-08-17T05:39:53.854Z,76.37
2022-08-17T05:42:20.864Z,74.38
2022-08-17T05:44:47.234Z,73.14
2022-08-17T05:47:13.736Z,72.84
2022-08-17T05:49:40.117Z,73.02
2022-08-17T05:52:53.216Z,73.01
2022-08-17T05:55:53.024Z,72.21
2022-08-17T05:58:42.040Z,71.46
2022-08-17T06:01:48.134Z,71.29
2022-08-17T06:04:35.695Z,70.71
2022-08-17T06:07:13.291Z,70.21
2022-08-17T06:09:56.262Z,70.73
2022-08-17T06:12:34.888Z,70.68
2022-08-17T06:15:04.735Z,71.07
2022-08-17T06:17:31.425Z,72.54
2022-08-17T06:20:02.617Z,72.10
2022-08-17T06:22:35.889Z,72.52
2022-08-17T06:25:12.997Z,73.36
2022-08-17T06:28:08.529Z,73.80
2022-08-17T06:31:01.048Z,73.01
2022-08-17T06:33:35.643Z,73.34
2022-08-17T06:36:36.815Z,72.85
2022-08-17T06:39:28.010Z,72.41
2022-08-17T06:42:06.351Z,73.08
2022-08-17T06:44:51.411Z,74.79
2022-08-17T06:47:28.831Z,74.18
2022-08-17T06:50:14.469Z,73.88
2022-08-17T06:53:10.092Z,73.67
2022-08-17T06:56:13.883Z,74.65
2022-08-17T06:58:43.313Z,74.35
2022-08-17T07:01:16.853Z,74.88
2022-08-17T07:03:46.004Z,77.46
2022-08-17T07:09:34.021Z,77.19
2022-08-17T07:12:10.668Z,75.94
2022-08-17T07:14:48.460Z,76.66
2022-08-17T07:17:18.292Z,76.60
2022-08-17T07:19:47.340Z,76.26
2022-08-17T07:22:50.545Z,75.89
2022-08-17T07:25:26.359Z,76.50
2022-08-17T07:27:55.825Z,77.08
2022-08-17T07:30:29.203Z,77.58
2022-08-17T07:33:08.159Z,76.78
2022-08-17T07:35:43.903Z,79.34
2022-08-17T07:38:31.697Z,78.45
2022-08-17T07:41:01.854Z,79.57
2022-08-17T07:43:41.725Z,82.44
2022-08-17T07:46:29.880Z,79.74
2022-08-17T07:49:07.380Z,82.74
2022-08-17T07:51:39.008Z,82.34
2022-08-17T07:54:43.906Z,83.08
2022-08-17T07:57:12.889Z,84.89
2022-08-17T07:59:43.328Z,83.63
2022-08-17T08:02:41.712Z,85.27
2022-08-17T08:05:49.537Z,86.20
2022-08-17T08:08:32.714Z,88.01
2022-08-17T08:11:21.531Z,89.98
2022-08-17T08:13:49.817Z,89.64
2022-08-17T08:16:29.429Z,94.83
2022-08-17T08:18:58.770Z,94.79
2022-08-17T08:21:35.583Z,96.06
2022-08-17T08:24:32.689Z,98.76
2022-08-17T08:27:11.133Z,100.00
2022-08-17T08:30:06.106Z,100.00
2022-08-17T08:32:48.541Z,98.45
2022-08-17T08:35:34.418Z,98.28
2022-08-17T08:38:19.932Z,98.51
2022-08-17T08:40:46.174Z,100.00
2022-08-17T08:43:43.428Z,93.48
2022-08-17T08:46:29.524Z,98.20
2022-08-17T08:50:02.237Z,96.42
2022-08-17T08:52:42.892Z,95.85
2022-08-17T08:55:19.667Z,99.81
2022-08-17T08:57:59.805Z,100.00
2022-08-17T09:00:27.401Z,99.82
2022-08-17T09:03:31.571Z,96.00
2022-08-17T09:06:37.623Z,97.11
2022-08-17T09:09:04.397Z,90.12
2022-08-17T09:12:02.603Z,93.75
2022-08-17T09:14:46.638Z,98.70
2022-08-17T09:17:46.914Z,93.54
2022-08-17T09:20:27.393Z,97.40
2022-08-17T09:23:07.988Z,96.69
2022-08-17T09:25:45.700Z,95.24
2022-08-17T09:28:24.952Z,96.67
2022-08-17T09:30:55.971Z,95.41
2022-08-17T09:33:27.544Z,96.42
2022-08-17T09:36:03.314Z,94.46
2022-08-17T09:38:43.242Z,89.21
2022-08-17T09:41:20.400Z,89.79
2022-08-17T09:43:58.533Z,88.81
2022-08-17T09:46:30.609Z,87.31
2022-08-17T09:49:02.059Z,89.22
2022-08-17T09:51:34.810Z,88.15
2022-08-17T09:54:21.379Z,83.06
2022-08-17T09:57:28.585Z,84.46
2022-08-17T10:00:01.194Z,87.35
2022-08-17T10:02:53.487Z,87.28
2022-08-17T10:05:37.391Z,85.74
2022-08-17T10:08:23.941Z,84.32
2022-08-17T10:11:10.913Z,85.18
2022-08-17T10:13:53.977Z,80.57
2022-08-17T10:16:43.738Z,79.50
2022-08-17T10:19:19.192Z,79.26
2022-08-17T10:22:32.585Z,79.99
2022-08-17T10:25:22.616Z,80.89
2022-08-17T10:27:55.261Z,78.52
2022-08-17T10:30:26.682Z,80.43
2022-08-17T10:32:59.125Z,81.46
2022-08-17T10:35:35.131Z,80.58
2022-08-17T10:38:27.229Z,77.37
2022-08-17T10:41:00.303Z,79.14
2022-08-17T10:44:30.628Z,76.15
2022-08-17T10:46:46.637Z,77.51
2022-08-17T10:49:24.366Z,81.24
2022-08-17T10:51:54.282Z,80.99
2022-08-17T10:54:39.917Z,78.96
2022-08-17T10:57:34.072Z,77.32
2022-08-17T11:00:36.070Z,79.37
2022-08-17T11:03:17.149Z,78.58
2022-08-17T11:05:59.341Z,76.33
2022-08-17T11:09:12.644Z,78.42
2022-08-17T11:11:57.168Z,77.58
2022-08-17T11:14:51.672Z,74.28
2022-08-17T11:17:57.370Z,76.66
2022-08-17T11:20:34.280Z,74.60
2022-08-17T11:23:18.262Z,73.54
2022-08-17T11:25:54.438Z,71.82
2022-08-17T11:28:26.750Z,71.69
2022-08-17T11:30:59.680Z,69.11
2022-08-17T11:33:29.396Z,65.67
2022-08-17T11:36:22.378Z,66.10
2022-08-17T11:39:18.034Z,66.18
2022-08-17T11:41:53.845Z,61.96
2022-08-17T11:44:23.343Z,61.48
2022-08-17T11:47:19.516Z,61.59
2022-08-17T11:50:27.684Z,60.74
2022-08-17T11:52:54.933Z,58.67
2022-08-17T11:55:37.441Z,56.76
2022-08-17T11:58:25.737Z,59.57
2022-08-17T12:00:58.544Z,55.04
2022-08-17T12:03:34.055Z,54.43
2022-08-17T12:06:19.659Z,55.65
2022-08-17T12:08:56.286Z,54.19
2022-08-17T12:12:11.160Z,55.09
2022-08-17T12:14:32.249Z,53.50
2022-08-17T12:17:13.976Z,53.33
2022-08-17T12:19:49.331Z,52.90
2022-08-17T12:22:25.181Z,55.08
2022-08-17T12:24:56.537Z,54.32
2022-08-17T12:28:04.104Z,55.43
2022-08-17T12:30:21.873Z,54.30
2022-08-17T12:32:48.484Z,54.81
2022-08-17T12:35:35.404Z,55.44
2022-08-17T12:38:03.393Z,53.42
2022-08-17T12:40:32.479Z,54.83
2022-08-17T12:43:18.683Z,53.34
2022-08-17T12:45:53.640Z,54.73
2022-08-17T12:48:24.966Z,54.37
2022-08-17T12:50:52.247Z,54.41
2022-08-17T12:53:25.607Z,53.15
2022-08-17T12:55:52.456Z,54.42
2022-08-17T12:58:22.460Z,53.74
2022-08-17T13:00:55.354Z,54.38
2022-08-17T13:03:24.494Z,53.79
2022-08-17T13:06:09.420Z,54.81
2022-08-17T13:08:39.195Z,54.05
2022-08-17T13:11:09.276Z,54.45
2022-08-17T13:13:38.964Z,54.61
2022-08-17T13:16:18.437Z,54.35
2022-08-17T13:18:51.742Z,54.84
2022-08-17T13:21:26.939Z,55.57
2022-08-17T13:24:14.871Z,54.26
2022-08-17T13:26:45.656Z,54.54
2022-08-17T13:29:51.224Z,53.64
2022-08-17T13:32:43.739Z,54.81
2022-08-17T13:35:40.939Z,52.17
2022-08-17T13:38:14.926Z,52.00
2022-08-17T13:40:43.783Z,50.72
2022-08-17T13:43:11.573Z,50.68
2022-08-17T13:45:50.859Z,50.69
2022-08-17T13:48:27.567Z,50.22
2022-08-17T13:50:57.099Z,51.50
2022-08-17T13:53:25.088Z,51.92
2022-08-17T13:55:53.101Z,50.93
2022-08-17T13:58:22.354Z,51.12
2022-08-17T14:00:50.634Z,49.38
2022-08-17T14:03:18.618Z,49.34
2022-08-17T14:05:46.004Z,48.21
2022-08-17T14:08:15.212Z,48.71
2022-08-17T14:10:42.308Z,46.33
2022-08-17T14:13:08.845Z,46.78
2022-08-17T14:15:55.816Z,47.05
2022-08-17T14:18:37.527Z,45.54
2022-08-17T14:21:13.313Z,45.03
2022-08-17T14:23:39.864Z,45.27
2022-08-17T14:26:10.460Z,45.31
2022-08-17T14:28:38.615Z,44.83
2022-08-17T14:31:17.104Z,46.35
2022-08-17T14:33:43.494Z,45.92
2022-08-17T14:36:09.922Z,45.20
2022-08-17T14:38:37.776Z,45.45
2022-08-17T14:41:05.027Z,45.98
2022-08-17T14:43:35.184Z,45.67
2022-08-17T14:46:01.959Z,44.67
2022-08-17T14:48:28.878Z,44.62
2022-08-17T14:50:56.425Z,43.19
2022-08-17T14:53:22.903Z,42.79
2022-08-17T14:55:51.149Z,44.39
2022-08-17T14:58:18.262Z,43.39
2022-08-17T15:00:44.820Z,43.80
2022-08-17T15:03:11.693Z,44.02
2022-08-17T15:05:39.238Z,43.42
2022-08-17T15:08:07.761Z,45.01
2022-08-17T15:10:34.522Z,44.71
2022-08-17T15:13:01.252Z,44.02
2022-08-17T15:15:28.444Z,45.87
2022-08-17T15:17:54.982Z,45.10
2022-08-17T15:20:27.453Z,45.57
2022-08-17T15:22:55.437Z,44.68
2022-08-17T15:25:22.906Z,44.37
2022-08-17T15:27:49.601Z,44.57
2022-08-17T15:30:16.916Z,44.86
2022-08-17T15:32:50.889Z,44.79
2022-08-17T15:35:27.311Z,44.74
2022-08-17T15:37:55.548Z,43.76
2022-08-17T15:40:21.916Z,43.05
2022-08-17T15:42:48.464Z,43.44
2022-08-17T15:45:21.099Z,42.53
2022-08-17T15:47:47.457Z,42.40
2022-08-17T15:50:13.851Z,41.99
2022-08-17T15:52:40.558Z,42.25
2022-08-17T15:55:11.917Z,42.30
2022-08-17T15:57:38.899Z,43.14
2022-08-17T16:00:10.055Z,42.66
2022-08-17T16:03:45.508Z,42.47
2022-08-17T16:05:28.463Z,43.63
2022-08-17T16:07:58.487Z,41.75
2022-08-17T16:10:33.970Z,41.11
2022-08-17T16:13:02.858Z,41.23
2022-08-17T16:15:31.002Z,41.89
2022-08-17T16:17:57.708Z,40.75
2022-08-17T16:20:24.045Z,39.55
2022-08-17T16:22:50.777Z,40.53
2022-08-17T16:25:21.983Z,41.11
2022-08-17T16:27:53.215Z,41.66
2022-08-17T16:30:22.733Z,41.69
2022-08-17T16:32:53.877Z,42.13
2022-08-17T16:35:22.537Z,43.35
2022-08-17T16:37:49.118Z,42.18
2022-08-17T16:40:16.943Z,43.58
2022-08-17T16:42:45.803Z,42.60
2022-08-17T16:45:18.426Z,43.11
2022-08-17T16:47:45.521Z,43.69
2022-08-17T16:50:14.254Z,44.89
2022-08-17T16:52:41.611Z,44.12
2022-08-17T16:55:13.328Z,44.51
2022-08-17T16:57:47.344Z,44.41
2022-08-17T17:00:16.976Z,44.44
2022-08-17T17:02:49.477Z,44.88
2022-08-17T17:05:36.364Z,44.50
2022-08-17T17:08:15.077Z,44.10
2022-08-17T17:10:55.155Z,43.13
2022-08-17T17:13:30.466Z,42.96
2022-08-17T17:16:15.409Z,43.42
2022-08-17T17:18:43.403Z,42.85
2022-08-17T17:21:14.151Z,42.66
2022-08-17T17:23:50.107Z,42.71
2022-08-17T17:26:51.948Z,42.57
2022-08-17T17:29:47.378Z,43.19
2022-08-17T17:32:25.184Z,43.19
2022-08-17T17:35:04.428Z,43.72
2022-08-17T17:37:34.587Z,42.89
2022-08-17T17:40:17.019Z,43.61
2022-08-17T17:42:44.342Z,44.08
2022-08-17T17:45:46.070Z,43.37
2022-08-17T17:48:12.686Z,43.22
2022-08-17T17:51:02.032Z,43.38
2022-08-17T17:54:01.205Z,43.60
2022-08-17T17:56:44.182Z,44.06
2022-08-17T17:59:43.891Z,44.27
2022-08-17T18:02:52.018Z,44.12
2022-08-17T18:05:37.188Z,44.29
2022-08-17T18:08:34.679Z,44.61
2022-08-17T18:11:37.207Z,44.63
2022-08-17T18:14:17.158Z,45.32
2022-08-17T18:16:45.198Z,45.47
2022-08-17T18:19:14.516Z,45.14
2022-08-17T18:21:45.765Z,45.09
2022-08-17T18:24:13.418Z,45.39
2022-08-17T18:27:08.653Z,45.65
2022-08-17T18:29:40.218Z,45.92
2022-08-17T18:32:30.993Z,46.25
2022-08-17T18:35:27.748Z,46.64
2022-08-17T18:38:28.527Z,47.01
2022-08-17T18:41:18.260Z,47.25
2022-08-17T18:43:57.368Z,47.41
2022-08-17T18:46:36.780Z,47.41
2022-08-17T18:49:28.984Z,47.29
2022-08-17T18:52:22.975Z,47.42
2022-08-17T18:55:04.384Z,47.68
2022-08-17T18:57:38.436Z,48.01
2022-08-17T19:00:36.858Z,48.94
2022-08-17T19:03:23.058Z,49.62
2022-08-17T19:05:53.536Z,48.50
2022-08-17T19:08:29.137Z,48.69
2022-08-17T19:10:59.026Z,48.88
2022-08-17T19:13:30.885Z,49.73
2022-08-17T19:16:07.786Z,50.04
2022-08-17T19:19:14.599Z,51.88
2022-08-17T19:21:53.152Z,52.91
2022-08-17T19:24:22.579Z,52.38
2022-08-17T19:26:56.854Z,52.96
2022-08-17T19:29:54.380Z,52.89
2022-08-17T19:32:34.169Z,52.12
2022-08-17T19:35:01.946Z,52.15
2022-08-17T19:37:46.592Z,53.54
2022-08-17T19:40:54.039Z,54.40
2022-08-17T19:43:36.477Z,53.35
2022-08-17T19:46:18.958Z,52.80
2022-08-17T19:49:10.260Z,53.84
2022-08-17T19:52:00.448Z,56.43
2022-08-17T19:54:35.758Z,55.36
2022-08-17T19:57:33.809Z,55.08
2022-08-17T20:00:13.657Z,55.51
2022-08-17T20:02:55.357Z,54.96
2022-08-17T20:05:23.864Z,55.57
2022-08-17T20:07:56.502Z,56.08
2022-08-17T20:10:30.366Z,56.49
2022-08-17T20:13:02.940Z,56.16
2022-08-17T20:15:33.121Z,56.57
2022-08-17T20:18:02.263Z,57.22
2022-08-17T20:20:37.601Z,57.66
2022-08-17T20:23:28.712Z,58.77
2022-08-17T20:26:18.915Z,59.07
2022-08-17T20:29:07.934Z,60.12
2022-08-17T20:31:41.713Z,59.61
2022-08-17T20:34:34.965Z,60.76
2022-08-17T20:37:12.856Z,60.81
2022-08-17T20:40:09.896Z,60.38
2022-08-17T20:42:36.780Z,60.85
2022-08-17T20:45:25.823Z,61.24
2022-08-17T20:48:35.024Z,61.23
2022-08-17T20:50:56.041Z,61.60
2022-08-17T20:53:47.037Z,61.32
2022-08-17T20:56:44.622Z,61.91
2022-08-17T20:59:25.313Z,61.86
2022-08-17T21:02:19.384Z,62.51
2022-08-17T21:04:53.244Z,61.86
2022-08-17T21:07:28.928Z,60.21
2022-08-17T21:10:15.884Z,61.40
2022-08-17T21:12:52.685Z,61.11
2022-08-17T21:15:19.093Z,61.51
2022-08-17T21:17:56.261Z,63.13
2022-08-17T21:20:48.728Z,63.85
2022-08-17T21:23:32.989Z,63.44
2022-08-17T21:26:09.649Z,63.34
2022-08-17T21:29:29.880Z,63.65
2022-08-17T21:32:01.755Z,63.44
2022-08-17T21:34:32.925Z,64.42
2022-08-17T21:37:22.128Z,64.36
2022-08-17T21:40:10.147Z,64.22
2022-08-17T21:42:44.761Z,66.04
2022-08-17T21:45:23.066Z,64.82
2022-08-17T21:48:05.897Z,65.05
2022-08-17T21:50:32.683Z,65.92
2022-08-17T21:53:02.121Z,65.48
2022-08-17T21:55:31.211Z,65.68
2022-08-17T21:58:14.617Z,65.43
2022-08-17T22:00:44.107Z,65.34
2022-08-17T22:03:28.544Z,64.90
2022-08-17T22:05:54.879Z,65.61
2022-08-17T22:08:25.686Z,64.34
2022-08-17T22:11:01.572Z,64.42
2022-08-17T22:13:29.825Z,64.48
2022-08-17T22:16:29.391Z,64.64
2022-08-17T22:18:58.744Z,64.56
2022-08-17T22:21:26.049Z,65.42
2022-08-17T22:24:21.482Z,64.92
2022-08-17T22:27:07.376Z,65.06
2022-08-17T22:29:57.295Z,65.33
2022-08-17T22:32:31.198Z,65.26
2022-08-17T22:35:18.071Z,66.68
2022-08-17T22:37:45.019Z,66.61
2022-08-17T22:40:25.607Z,66.95
2022-08-17T22:42:52.260Z,67.56
2022-08-17T22:45:18.660Z,68.39
2022-08-17T22:47:48.698Z,67.91
2022-08-17T22:50:24.329Z,68.54
2022-08-17T22:53:21.587Z,70.39
2022-08-17T22:56:11.892Z,70.36
2022-08-17T22:59:20.333Z,70.27
2022-08-17T23:02:24.057Z,70.46
2022-08-17T23:05:16.684Z,70.89
2022-08-17T23:07:44.616Z,71.19
2022-08-17T23:10:13.412Z,71.55
2022-08-17T23:12:40.253Z,72.07
2022-08-17T23:15:18.854Z,71.95
2022-08-17T23:17:45.848Z,71.66
2022-08-17T23:20:14.908Z,71.61
2022-08-17T23:22:51.352Z,72.30
2022-08-17T23:25:26.291Z,71.97
2022-08-17T23:27:53.078Z,72.43
2022-08-17T23:30:19.775Z,73.09
2022-08-17T23:32:53.816Z,72.75
2022-08-17T23:35:38.926Z,73.16
2022-08-17T23:38:10.581Z,73.59
2022-08-17T23:40:37.832Z,73.31
2022-08-17T23:43:17.416Z,73.52
2022-08-17T23:45:54.119Z,73.63
2022-08-17T23:48:35.133Z,74.16
2022-08-17T23:51:13.934Z,75.63
2022-08-17T23:53:47.793Z,74.43
2022-08-17T23:56:14.891Z,74.31
2022-08-17T23:58:43.215Z,74.23
